createdAt,value
2018-12-07T00:01:38.223Z,12.20
2018-12-07T00:04:07.219Z,12.10
2018-12-07T00:06:36.270Z,12.10
2018-12-07T00:09:06.452Z,12.10
2018-12-07T00:11:35.292Z,12.20
2018-12-07T00:14:04.284Z,12.20
2018-12-07T00:16:33.102Z,12.10
2018-12-07T00:19:02.016Z,12.10
2018-12-07T00:21:30.800Z,12.10
2018-12-07T00:23:59.602Z,12.10
2018-12-07T00:26:28.510Z,12.10
2018-12-07T00:28:57.338Z,12.10
2018-12-07T00:31:26.245Z,12.00
2018-12-07T00:33:55.059Z,12.00
2018-12-07T00:36:23.978Z,12.00
2018-12-07T00:38:52.854Z,12.00
2018-12-07T00:41:21.695Z,12.00
2018-12-07T00:43:50.600Z,12.00
2018-12-07T00:46:19.424Z,12.10
2018-12-07T00:48:48.247Z,12.10
2018-12-07T00:51:17.132Z,12.10
2018-12-07T00:53:45.943Z,12.10
2018-12-07T00:56:14.762Z,12.10
2018-12-07T00:58:43.576Z,12.10
2018-12-07T01:01:12.383Z,12.10
2018-12-07T01:03:41.225Z,12.10
2018-12-07T01:06:10.210Z,12.10
2018-12-07T01:08:39.111Z,12.10
2018-12-07T01:11:07.920Z,12.10
2018-12-07T01:13:36.951Z,12.10
2018-12-07T01:16:05.851Z,12.10
2018-12-07T01:18:34.679Z,12.10
2018-12-07T01:21:03.519Z,12.10
2018-12-07T01:23:32.333Z,12.20
2018-12-07T01:26:01.143Z,12.10
2018-12-07T01:28:29.979Z,12.10
2018-12-07T01:30:58.872Z,12.10
2018-12-07T01:33:27.710Z,12.10
2018-12-07T01:35:56.511Z,12.10
2018-12-07T01:38:25.354Z,12.10
2018-12-07T01:40:54.139Z,12.20
2018-12-07T01:43:22.955Z,12.10
2018-12-07T01:45:51.745Z,12.20
2018-12-07T01:48:20.590Z,12.20
2018-12-07T01:50:49.387Z,12.10
2018-12-07T01:53:18.296Z,12.10
2018-12-07T01:55:47.095Z,12.10
2018-12-07T01:58:16.087Z,12.10
2018-12-07T02:00:44.872Z,12.10
2018-12-07T02:03:13.703Z,12.10
2018-12-07T02:05:42.539Z,12.00
2018-12-07T02:08:11.412Z,12.10
2018-12-07T02:10:40.210Z,12.10
2018-12-07T02:13:09.021Z,12.10
2018-12-07T02:15:37.909Z,12.00
2018-12-07T02:18:06.767Z,12.10
2018-12-07T02:20:35.668Z,12.00
2018-12-07T02:23:04.630Z,12.10
2018-12-07T02:25:33.435Z,12.00
2018-12-07T02:28:02.243Z,12.00
2018-12-07T02:30:31.135Z,12.00
2018-12-07T02:33:00.071Z,12.00
2018-12-07T02:35:28.949Z,12.00
2018-12-07T02:37:57.778Z,12.00
2018-12-07T02:40:26.592Z,11.90
2018-12-07T02:42:55.485Z,12.00
2018-12-07T02:45:24.391Z,11.90
2018-12-07T02:47:53.198Z,11.90
2018-12-07T02:50:22.038Z,12.00
2018-12-07T02:52:50.919Z,11.90
2018-12-07T02:55:19.737Z,11.90
2018-12-07T02:57:48.582Z,11.90
2018-12-07T03:00:17.362Z,11.90
2018-12-07T03:02:46.768Z,11.90
2018-12-07T03:05:15.559Z,11.90
2018-12-07T03:07:44.391Z,11.90
2018-12-07T03:10:13.276Z,11.90
2018-12-07T03:12:42.118Z,11.90
2018-12-07T03:15:11.068Z,11.80
2018-12-07T03:17:39.895Z,11.80
2018-12-07T03:20:08.879Z,11.80
2018-12-07T03:22:37.680Z,11.80
2018-12-07T03:25:06.643Z,11.80
2018-12-07T03:27:35.459Z,11.80
2018-12-07T03:30:05.809Z,11.80
2018-12-07T03:32:34.680Z,11.80
2018-12-07T03:35:03.773Z,11.80
2018-12-07T03:37:32.570Z,11.80
2018-12-07T03:40:01.409Z,11.80
2018-12-07T03:42:30.281Z,11.70
2018-12-07T03:44:59.084Z,11.70
2018-12-07T03:47:27.887Z,11.70
2018-12-07T03:49:56.684Z,11.70
2018-12-07T03:52:25.473Z,11.70
2018-12-07T03:54:54.259Z,11.70
2018-12-07T03:57:23.138Z,11.70
2018-12-07T03:59:51.934Z,11.60
2018-12-07T04:02:20.735Z,11.60
2018-12-07T04:04:49.539Z,11.70
2018-12-07T04:07:18.428Z,11.70
2018-12-07T04:09:47.215Z,11.70
2018-12-07T04:12:16.028Z,11.70
2018-12-07T04:14:44.814Z,11.70
2018-12-07T04:17:13.871Z,11.60
2018-12-07T04:19:42.659Z,11.60
2018-12-07T04:22:11.456Z,11.60
2018-12-07T04:24:40.258Z,11.60
2018-12-07T04:27:09.161Z,11.60
2018-12-07T04:29:37.949Z,11.50
2018-12-07T04:32:06.762Z,11.50
2018-12-07T04:34:35.562Z,11.60
2018-12-07T04:37:04.522Z,11.50
2018-12-07T04:39:33.309Z,11.50
2018-12-07T04:42:02.097Z,11.40
2018-12-07T04:44:30.896Z,11.40
2018-12-07T04:46:59.811Z,11.40
2018-12-07T04:49:28.623Z,11.40
2018-12-07T04:51:57.447Z,11.40
2018-12-07T04:54:26.335Z,11.30
2018-12-07T04:56:55.165Z,11.20
2018-12-07T04:59:23.968Z,11.20
2018-12-07T05:01:52.972Z,11.30
2018-12-07T05:04:21.772Z,11.20
2018-12-07T05:06:50.607Z,11.20
2018-12-07T05:09:19.424Z,11.20
2018-12-07T05:11:48.239Z,11.20
2018-12-07T05:14:17.047Z,11.20
2018-12-07T05:16:45.865Z,11.40
2018-12-07T05:19:14.759Z,11.50
2018-12-07T05:21:43.586Z,11.40
2018-12-07T05:24:12.403Z,11.30
2018-12-07T05:26:41.244Z,11.20
2018-12-07T05:29:10.051Z,11.20
2018-12-07T05:31:38.853Z,11.20
2018-12-07T05:34:07.675Z,11.20
2018-12-07T05:36:36.469Z,11.20
2018-12-07T05:39:06.869Z,11.20
2018-12-07T05:41:35.671Z,11.20
2018-12-07T05:44:04.623Z,11.20
2018-12-07T05:46:33.434Z,11.20
2018-12-07T05:49:02.354Z,11.20
2018-12-07T05:51:31.196Z,11.20
2018-12-07T05:54:00.019Z,11.30
2018-12-07T05:56:28.896Z,11.20
2018-12-07T05:58:57.683Z,11.20
2018-12-07T06:01:26.692Z,11.20
2018-12-07T06:03:55.664Z,11.20
2018-12-07T06:06:24.539Z,11.20
2018-12-07T06:08:53.379Z,11.20
2018-12-07T06:11:22.207Z,11.20
2018-12-07T06:13:51.011Z,11.30
2018-12-07T06:16:19.934Z,11.30
2018-12-07T06:18:48.735Z,11.30
2018-12-07T06:21:17.527Z,11.30
2018-12-07T06:23:46.341Z,11.30
2018-12-07T06:26:15.129Z,11.30
2018-12-07T06:28:43.931Z,11.30
2018-12-07T06:31:12.795Z,11.20
2018-12-07T06:33:41.593Z,11.20
2018-12-07T06:36:10.478Z,11.20
2018-12-07T06:38:39.388Z,11.20
2018-12-07T06:41:08.222Z,11.20
2018-12-07T06:43:37.257Z,11.20
2018-12-07T06:46:06.120Z,11.20
2018-12-07T06:48:34.978Z,11.20
2018-12-07T06:51:04.247Z,11.20
2018-12-07T06:53:33.108Z,11.20
2018-12-07T06:56:01.944Z,11.20
2018-12-07T06:58:31.124Z,11.20
2018-12-07T07:01:00.019Z,11.20
2018-12-07T07:03:28.839Z,11.20
2018-12-07T07:05:57.663Z,11.20
2018-12-07T07:08:26.567Z,11.20
2018-12-07T07:10:55.467Z,11.30
2018-12-07T07:13:24.550Z,11.30
2018-12-07T07:15:53.423Z,11.20
2018-12-07T07:18:22.396Z,11.20
2018-12-07T07:20:51.327Z,11.20
2018-12-07T07:23:20.130Z,11.20
2018-12-07T07:25:48.973Z,11.30
2018-12-07T07:28:17.864Z,11.20
2018-12-07T07:30:46.787Z,11.20
2018-12-07T07:33:15.622Z,11.20
2018-12-07T07:35:44.487Z,11.20
2018-12-07T07:38:13.400Z,11.30
2018-12-07T07:40:42.247Z,11.30
2018-12-07T07:43:11.059Z,11.30
2018-12-07T07:45:39.952Z,11.40
2018-12-07T07:48:08.772Z,11.40
2018-12-07T07:50:37.575Z,11.40
2018-12-07T07:53:06.384Z,11.40
2018-12-07T07:55:35.189Z,11.40
2018-12-07T07:58:04.119Z,11.40
2018-12-07T08:00:32.950Z,11.50
2018-12-07T08:03:01.766Z,11.50
2018-12-07T08:05:30.596Z,11.50
2018-12-07T08:07:59.403Z,11.50
2018-12-07T08:10:28.208Z,11.50
2018-12-07T08:12:58.739Z,11.50
2018-12-07T08:15:27.810Z,11.50
2018-12-07T08:17:56.740Z,11.50
2018-12-07T08:20:25.565Z,11.50
2018-12-07T08:22:54.499Z,11.50
2018-12-07T08:25:23.421Z,11.50
2018-12-07T08:27:52.571Z,11.50
2018-12-07T08:30:21.399Z,11.50
2018-12-07T08:32:50.214Z,11.50
2018-12-07T08:35:19.088Z,11.50
2018-12-07T08:37:47.970Z,11.40
2018-12-07T08:40:16.861Z,11.40
2018-12-07T08:42:45.762Z,11.40
2018-12-07T08:45:15.068Z,11.40
2018-12-07T08:47:43.934Z,11.40
2018-12-07T08:50:13.013Z,11.50
2018-12-07T08:52:41.919Z,11.50
2018-12-07T08:55:10.904Z,11.50
2018-12-07T08:57:40.063Z,11.50
2018-12-07T09:00:10.140Z,11.60
2018-12-07T09:02:38.975Z,11.70
2018-12-07T09:05:08.137Z,11.70
2018-12-07T09:07:36.959Z,11.60
2018-12-07T09:10:06.607Z,11.50
2018-12-07T09:12:35.600Z,11.50
2018-12-07T09:15:04.719Z,11.60
2018-12-07T09:17:33.519Z,11.60
2018-12-07T09:20:02.368Z,11.70
2018-12-07T09:22:31.175Z,11.70
2018-12-07T09:25:00.355Z,11.60
2018-12-07T09:27:29.172Z,11.40
2018-12-07T09:29:58.075Z,11.30
2018-12-07T09:32:27.015Z,11.40
2018-12-07T09:34:55.966Z,11.30
2018-12-07T09:37:24.820Z,11.40
2018-12-07T09:39:53.635Z,11.50
2018-12-07T09:42:22.449Z,11.50
2018-12-07T09:44:51.292Z,11.70
2018-12-07T09:47:20.108Z,11.70
2018-12-07T09:49:48.915Z,11.70
2018-12-07T09:52:18.052Z,11.80
2018-12-07T09:54:46.875Z,11.90
2018-12-07T09:57:15.737Z,12.00
2018-12-07T09:59:44.522Z,12.00
2018-12-07T10:02:13.515Z,12.00
2018-12-07T10:04:42.316Z,12.00
2018-12-07T10:07:11.146Z,11.80
2018-12-07T10:09:39.989Z,11.80
2018-12-07T10:12:08.931Z,11.50
2018-12-07T10:14:37.787Z,11.40
2018-12-07T10:17:06.631Z,11.30
2018-12-07T10:19:35.432Z,11.30
2018-12-07T10:22:04.435Z,11.40
2018-12-07T10:24:33.269Z,11.40
2018-12-07T10:27:06.371Z,11.50
2018-12-07T10:29:35.375Z,11.50
2018-12-07T10:32:04.252Z,11.40
2018-12-07T10:34:33.104Z,11.40
2018-12-07T10:37:01.920Z,11.40
2018-12-07T10:39:30.759Z,11.40
2018-12-07T10:42:00.023Z,11.40
2018-12-07T10:44:28.916Z,11.50
2018-12-07T10:46:57.847Z,11.50
2018-12-07T10:49:26.751Z,11.50
2018-12-07T10:51:55.680Z,11.50
2018-12-07T10:54:24.490Z,11.50
2018-12-07T10:56:53.359Z,11.50
2018-12-07T10:59:22.250Z,11.50
2018-12-07T11:01:56.671Z,11.60
2018-12-07T11:04:31.003Z,11.60
2018-12-07T11:08:04.716Z,11.60
2018-12-07T11:10:38.860Z,11.60
2018-12-07T11:13:12.955Z,11.70
2018-12-07T11:15:47.247Z,12.00
2018-12-07T11:18:21.992Z,12.00
2018-12-07T11:20:56.206Z,12.10
2018-12-07T11:23:30.531Z,12.10
2018-12-07T11:26:04.891Z,12.10
2018-12-07T11:28:39.287Z,11.90
2018-12-07T11:31:13.926Z,12.10
2018-12-07T11:33:47.852Z,12.10
2018-12-07T11:36:16.849Z,12.00
2018-12-07T11:38:45.673Z,12.00
2018-12-07T11:41:14.457Z,12.10
2018-12-07T11:43:43.286Z,12.00
2018-12-07T11:46:12.128Z,11.90
2018-12-07T11:48:40.946Z,11.90
2018-12-07T11:51:09.842Z,11.80
2018-12-07T11:53:38.671Z,11.90
2018-12-07T11:56:07.486Z,11.90
2018-12-07T11:58:36.352Z,11.70
2018-12-07T12:01:05.191Z,11.80
2018-12-07T12:03:34.015Z,11.80
2018-12-07T12:06:02.872Z,11.80
2018-12-07T12:08:31.679Z,11.70
2018-12-07T12:11:00.768Z,11.70
2018-12-07T12:13:29.599Z,11.60
2018-12-07T12:15:58.387Z,11.60
2018-12-07T12:18:27.206Z,11.60
2018-12-07T12:20:56.183Z,11.80
2018-12-07T12:23:25.104Z,11.70
2018-12-07T12:25:53.892Z,11.80
2018-12-07T12:28:22.759Z,11.70
2018-12-07T12:30:51.707Z,11.70
2018-12-07T12:33:20.535Z,11.80
2018-12-07T12:35:49.455Z,11.90
2018-12-07T12:38:18.270Z,11.80
2018-12-07T12:40:47.277Z,11.70
2018-12-07T12:43:16.159Z,11.60
2018-12-07T12:45:44.949Z,11.50
2018-12-07T12:48:13.773Z,11.60
2018-12-07T12:50:42.586Z,11.60
2018-12-07T12:53:11.674Z,11.50
2018-12-07T12:55:40.814Z,11.50
2018-12-07T12:58:09.623Z,11.60
2018-12-07T13:00:38.503Z,11.60
2018-12-07T13:03:07.507Z,11.60
2018-12-07T13:05:36.352Z,11.60
2018-12-07T13:08:05.211Z,11.50
2018-12-07T13:10:34.084Z,11.50
2018-12-07T13:13:02.961Z,11.50
2018-12-07T13:15:31.765Z,11.40
2018-12-07T13:18:00.668Z,11.40
2018-12-07T13:20:30.059Z,11.30
2018-12-07T13:22:58.889Z,11.30
2018-12-07T13:25:27.725Z,11.20
2018-12-07T13:27:56.564Z,11.20
2018-12-07T13:30:25.412Z,11.20
2018-12-07T13:32:54.239Z,11.20
2018-12-07T13:35:23.082Z,11.10
2018-12-07T13:37:51.900Z,11.00
2018-12-07T13:40:20.830Z,11.10
2018-12-07T13:42:49.939Z,11.10
2018-12-07T13:45:18.922Z,11.10
2018-12-07T13:47:48.190Z,11.20
2018-12-07T13:50:22.708Z,11.10
2018-12-07T13:52:51.608Z,11.10
2018-12-07T13:55:20.700Z,11.20
2018-12-07T13:57:49.560Z,11.30
2018-12-07T14:00:18.539Z,11.30
2018-12-07T14:02:47.403Z,11.40
2018-12-07T14:05:16.580Z,11.40
2018-12-07T14:07:45.597Z,11.50
2018-12-07T14:10:14.508Z,11.50
2018-12-07T14:12:43.436Z,11.50
2018-12-07T14:15:12.694Z,11.50
2018-12-07T14:17:41.627Z,11.50
2018-12-07T14:20:10.678Z,11.50
2018-12-07T14:22:39.676Z,11.50
2018-12-07T14:25:08.729Z,11.50
2018-12-07T14:27:37.591Z,11.50
2018-12-07T14:30:08.557Z,11.50
2018-12-07T14:32:37.604Z,11.50
2018-12-07T14:35:07.134Z,11.50
2018-12-07T14:37:36.099Z,11.50
2018-12-07T14:40:06.403Z,11.40
2018-12-07T14:42:35.529Z,11.40
2018-12-07T14:45:06.298Z,11.40
2018-12-07T14:47:35.280Z,11.40
2018-12-07T14:50:05.580Z,11.40
2018-12-07T14:52:34.558Z,11.40
2018-12-07T14:55:03.628Z,11.40
2018-12-07T14:57:32.669Z,11.40
2018-12-07T15:00:02.239Z,11.40
2018-12-07T15:02:31.203Z,11.40
2018-12-07T15:05:00.455Z,11.40
2018-12-07T15:07:29.476Z,11.30
2018-12-07T15:09:58.409Z,11.40
2018-12-07T15:12:27.348Z,11.30
2018-12-07T15:14:56.374Z,11.30
2018-12-07T15:17:25.321Z,11.20
2018-12-07T15:19:54.330Z,11.20
2018-12-07T15:22:23.355Z,11.20
2018-12-07T15:24:52.249Z,11.20
2018-12-07T15:27:21.312Z,11.10
2018-12-07T15:29:50.301Z,11.10
2018-12-07T15:32:19.172Z,11.10
2018-12-07T15:34:48.094Z,11.10
2018-12-07T15:37:17.226Z,11.10
2018-12-07T15:39:46.333Z,11.00
2018-12-07T15:42:15.375Z,11.00
2018-12-07T15:44:44.240Z,11.00
2018-12-07T15:47:13.098Z,11.00
2018-12-07T15:49:43.733Z,11.10
2018-12-07T15:52:12.752Z,11.10
2018-12-07T15:54:41.738Z,11.10
2018-12-07T15:57:10.572Z,11.00
2018-12-07T15:59:39.470Z,11.00
2018-12-07T16:02:08.344Z,11.00
2018-12-07T16:04:37.510Z,11.00
2018-12-07T16:07:06.485Z,11.00
2018-12-07T16:09:35.345Z,11.00
2018-12-07T16:12:04.223Z,11.00
2018-12-07T16:14:33.127Z,11.00
2018-12-07T16:17:02.203Z,11.00
2018-12-07T16:19:31.414Z,10.90
2018-12-07T16:22:00.555Z,11.00
2018-12-07T16:24:29.653Z,11.00
2018-12-07T16:26:58.652Z,11.00
2018-12-07T16:29:27.772Z,10.90
2018-12-07T16:31:56.845Z,10.90
2018-12-07T16:34:25.920Z,10.90
2018-12-07T16:36:54.900Z,10.90
2018-12-07T16:39:23.823Z,10.90
2018-12-07T16:41:52.778Z,10.90
2018-12-07T16:44:21.837Z,10.90
2018-12-07T16:46:50.860Z,10.90
2018-12-07T16:54:17.015Z,11.10
2018-12-07T16:56:45.912Z,11.20
2018-12-07T16:59:14.957Z,11.20
2018-12-07T17:01:43.917Z,11.20
2018-12-07T17:04:12.960Z,11.20
2018-12-07T17:06:41.769Z,11.10
2018-12-07T17:09:10.571Z,11.10
2018-12-07T17:11:39.472Z,10.90
2018-12-07T17:14:08.366Z,10.60
2018-12-07T17:16:37.321Z,10.60
2018-12-07T17:19:06.147Z,10.70
2018-12-07T17:21:35.395Z,10.70
2018-12-07T17:24:04.477Z,10.70
2018-12-07T17:26:33.594Z,10.70
2018-12-07T17:29:02.576Z,10.60
2018-12-07T17:31:31.853Z,10.60
2018-12-07T17:34:01.085Z,10.70
2018-12-07T17:36:31.235Z,10.70
2018-12-07T17:39:00.154Z,10.60
2018-12-07T17:41:29.637Z,10.70
2018-12-07T17:43:58.489Z,10.80
2018-12-07T17:46:27.841Z,10.70
2018-12-07T17:48:56.956Z,10.70
2018-12-07T17:51:26.185Z,10.80
2018-12-07T17:53:55.022Z,10.80
2018-12-07T17:56:23.922Z,11.00
2018-12-07T17:58:52.871Z,11.00
2018-12-07T18:01:21.799Z,10.90
2018-12-07T18:03:50.648Z,11.00
2018-12-07T18:06:19.571Z,11.00
2018-12-07T18:08:48.398Z,11.10
2018-12-07T18:11:17.551Z,11.00
2018-12-07T18:13:48.076Z,11.00
2018-12-07T18:16:17.376Z,10.90
2018-12-07T18:18:47.090Z,10.90
2018-12-07T18:21:16.207Z,11.00
2018-12-07T18:23:45.126Z,11.10
2018-12-07T18:26:14.510Z,11.10
2018-12-07T18:28:43.581Z,11.00
2018-12-07T18:31:12.436Z,11.10
2018-12-07T18:33:41.397Z,11.20
2018-12-07T18:36:10.648Z,11.20
2018-12-07T18:38:39.860Z,11.20
2018-12-07T18:41:08.762Z,11.20
2018-12-07T18:43:37.753Z,11.30
2018-12-07T18:46:06.772Z,11.30
2018-12-07T18:48:35.670Z,11.30
2018-12-07T18:51:04.835Z,11.40
2018-12-07T18:53:33.759Z,11.40
2018-12-07T18:56:02.762Z,11.40
2018-12-07T18:58:31.599Z,11.50
2018-12-07T19:01:00.564Z,11.60
2018-12-07T19:03:29.652Z,11.60
2018-12-07T19:05:58.923Z,11.60
2018-12-07T19:08:28.050Z,11.80
2018-12-07T19:10:57.279Z,11.70
2018-12-07T19:13:26.125Z,11.70
2018-12-07T19:15:55.035Z,11.60
2018-12-07T19:18:23.933Z,11.50
2018-12-07T19:20:53.078Z,11.40
2018-12-07T19:23:21.971Z,11.30
2018-12-07T19:25:51.434Z,11.30
2018-12-07T19:28:20.527Z,11.20
2018-12-07T19:30:49.453Z,11.10
2018-12-07T19:33:19.265Z,11.10
2018-12-07T19:35:48.718Z,11.20
2018-12-07T19:38:17.897Z,11.30
2018-12-07T19:40:47.013Z,11.30
2018-12-07T19:43:15.982Z,11.30
2018-12-07T19:45:44.898Z,11.40
2018-12-07T19:48:14.113Z,11.30
2018-12-07T19:50:43.159Z,11.10
2018-12-07T19:53:12.080Z,11.00
2018-12-07T19:55:40.903Z,10.80
2018-12-07T19:58:09.868Z,10.60
2018-12-07T20:00:38.878Z,10.40
2018-12-07T20:03:08.044Z,10.20
2018-12-07T20:05:37.106Z,10.10
2018-12-07T20:08:06.201Z,10.20
2018-12-07T20:10:35.216Z,10.10
2018-12-07T20:13:04.164Z,10.10
2018-12-07T20:15:33.136Z,10.00
2018-12-07T20:18:02.060Z,10.10
2018-12-07T20:20:31.161Z,10.40
2018-12-07T20:23:00.295Z,10.40
2018-12-07T20:25:29.393Z,10.40
2018-12-07T20:27:58.527Z,10.30
2018-12-07T20:30:27.614Z,10.30
2018-12-07T20:32:56.515Z,10.30
2018-12-07T20:35:25.434Z,10.20
2018-12-07T20:37:54.710Z,10.30
2018-12-07T20:40:23.611Z,10.30
2018-12-07T20:42:52.662Z,10.30
2018-12-07T20:45:21.866Z,10.20
2018-12-07T20:47:50.669Z,10.20
2018-12-07T20:50:19.666Z,10.20
2018-12-07T20:52:48.975Z,10.20
2018-12-07T20:55:18.117Z,10.10
2018-12-07T20:57:47.047Z,10.10
2018-12-07T21:00:16.289Z,10.10
2018-12-07T21:02:45.417Z,10.10
2018-12-07T21:06:44.014Z,10.10
2018-12-07T21:09:27.180Z,9.60
2018-12-07T21:12:06.147Z,8.50
2018-12-07T21:14:40.541Z,8.20
2018-12-07T21:17:14.239Z,8.00
2018-12-07T21:19:50.413Z,8.00
2018-12-07T21:22:19.281Z,7.90
2018-12-07T21:24:48.210Z,7.90
2018-12-07T21:27:17.183Z,7.80
2018-12-07T21:30:01.326Z,7.80
2018-12-07T21:32:30.271Z,7.80
2018-12-07T21:35:04.222Z,7.80
2018-12-07T21:37:33.213Z,7.80
2018-12-07T21:40:17.673Z,7.70
2018-12-07T21:42:46.683Z,7.60
2018-12-07T21:45:15.499Z,7.60
2018-12-07T21:48:48.580Z,7.50
2018-12-07T21:51:30.372Z,7.50
2018-12-07T21:53:59.296Z,7.50
2018-12-07T21:56:28.243Z,7.40
2018-12-07T21:58:57.369Z,7.30
2018-12-07T22:01:26.490Z,7.30
2018-12-07T22:03:56.138Z,7.40
2018-12-07T22:06:25.341Z,7.40
2018-12-07T22:08:54.584Z,7.40
2018-12-07T22:11:23.536Z,7.40
2018-12-07T22:13:52.579Z,7.40
2018-12-07T22:16:21.523Z,7.40
2018-12-07T22:18:50.533Z,7.50
2018-12-07T22:21:19.598Z,7.50
2018-12-07T22:23:48.520Z,7.50
2018-12-07T22:26:17.466Z,7.10
2018-12-07T22:28:46.812Z,6.70
2018-12-07T22:31:15.850Z,6.50
2018-12-07T22:33:44.777Z,6.50
2018-12-07T22:36:13.706Z,6.40
2018-12-07T22:38:43.397Z,6.40
2018-12-07T22:41:12.402Z,6.40
2018-12-07T22:43:41.363Z,6.30
2018-12-07T22:46:10.345Z,6.30
2018-12-07T22:48:39.547Z,6.30
2018-12-07T22:51:08.467Z,6.40
2018-12-07T22:53:37.242Z,6.40
2018-12-07T22:56:06.027Z,6.30
2018-12-07T22:58:34.879Z,6.20
2018-12-07T23:01:04.240Z,6.10
2018-12-07T23:03:33.033Z,6.00
2018-12-07T23:06:01.839Z,5.90
2018-12-07T23:08:30.652Z,5.80
2018-12-07T23:10:59.467Z,5.80
2018-12-07T23:13:28.603Z,5.80
2018-12-07T23:15:57.391Z,5.80
2018-12-07T23:18:26.486Z,5.80
2018-12-07T23:20:55.312Z,5.80
2018-12-07T23:23:24.141Z,5.70
2018-12-07T23:25:53.034Z,5.70
2018-12-07T23:28:21.925Z,5.60
2018-12-07T23:30:50.798Z,5.60
2018-12-07T23:33:19.631Z,5.70
2018-12-07T23:35:48.501Z,5.70
2018-12-07T23:38:17.319Z,5.70
2018-12-07T23:40:46.118Z,5.70
2018-12-07T23:43:15.059Z,5.90
2018-12-07T23:45:43.990Z,6.00
2018-12-07T23:48:12.890Z,6.10
2018-12-07T23:50:41.770Z,6.20
2018-12-07T23:53:10.605Z,6.20
2018-12-07T23:55:39.491Z,6.10
2018-12-07T23:58:08.519Z,6.20
